Time;durP1;ratioP1;P1;durP2;ratioP2;P2;SDS_P1;SDS_P2;PMS_P1;PMS_P2;Temp;Humidity;BMP_temperature;BMP_pressure;BME280_temperature;BME280_humidity;BME280_pressure;Samples;Min_cycle;Max_cycle;Signal;HPM_P1;HPM_P2
2022/10/22 00:02:14;;;;;;;10.23;3.75;;;12.90;99.90;;;;;;5037038;28;20037;-74
2022/10/22 00:04:40;;;;;;;7.00;4.05;;;13.00;99.90;;;;;;5035397;28;20479;-74
2022/10/22 00:07:06;;;;;;;7.13;3.97;;;13.00;99.90;;;;;;5036677;28;20044;-74
2022/10/22 00:09:31;;;;;;;7.28;4.10;;;13.00;99.90;;;;;;5039105;28;20047;-73
2022/10/22 00:11:57;;;;;;;10.05;4.40;;;13.10;99.90;;;;;;5036559;28;20028;-74
2022/10/22 00:14:22;;;;;;;8.15;5.05;;;13.20;99.90;;;;;;5036268;28;20025;-74
2022/10/22 00:16:48;;;;;;;10.98;4.47;;;13.20;99.90;;;;;;5033955;28;20036;-73
2022/10/22 00:19:14;;;;;;;8.77;4.13;;;13.20;99.90;;;;;;5035849;28;20029;-74
2022/10/22 00:21:40;;;;;;;7.00;4.75;;;13.20;99.90;;;;;;5037127;28;20032;-73
2022/10/22 00:24:05;;;;;;;6.90;4.60;;;13.20;99.90;;;;;;5034790;28;20021;-73
2022/10/22 00:26:31;;;;;;;8.75;4.55;;;13.30;99.90;;;;;;5052432;28;20026;-74
2022/10/22 00:28:56;;;;;;;9.82;4.75;;;13.20;99.90;;;;;;5035768;28;20414;-74
2022/10/22 00:31:22;;;;;;;8.05;4.97;;;13.30;99.90;;;;;;5034482;28;20036;-73
2022/10/22 00:33:48;;;;;;;9.30;4.63;;;13.30;99.90;;;;;;5037685;28;20033;-73
2022/10/22 00:36:15;;;;;;;9.30;5.05;;;13.30;99.90;;;;;;5033952;28;20447;-73
2022/10/22 00:38:40;;;;;;;10.30;4.90;;;13.30;99.90;;;;;;5035276;28;20056;-74
2022/10/22 00:41:07;;;;;;;7.72;4.75;;;13.30;99.90;;;;;;5034281;28;20420;-75
2022/10/22 00:43:32;;;;;;;8.20;4.82;;;13.20;99.90;;;;;;5034744;28;20056;-73
2022/10/22 00:45:58;;;;;;;9.30;5.18;;;13.20;99.90;;;;;;5036237;28;21535;-73
2022/10/22 00:48:28;;;;;;;11.32;5.18;;;13.20;99.90;;;;;;5034348;28;20017;-74
2022/10/22 00:51:06;;;;;;;8.15;5.63;;;13.10;99.90;;;;;;5034344;28;20048;-74
2022/10/22 00:53:36;;;;;;;9.65;6.00;;;13.00;99.90;;;;;;5033435;28;20036;-74
2022/10/22 00:56:02;;;;;;;9.05;4.90;;;12.90;99.90;;;;;;5034870;28;20052;-73
2022/10/22 00:58:32;;;;;;;10.57;5.50;;;12.90;99.90;;;;;;5033734;28;20021;-73
2022/10/22 01:00:58;;;;;;;8.65;5.38;;;12.90;99.90;;;;;;5033919;28;20040;-73
2022/10/22 01:03:24;;;;;;;17.45;5.90;;;12.80;99.90;;;;;;5038158;28;20480;-74
2022/10/22 01:05:53;;;;;;;15.52;5.65;;;12.80;99.90;;;;;;5051112;28;20120;-73
2022/10/22 01:08:41;;;;;;;11.18;6.05;;;12.70;99.90;;;;;;5051154;28;20056;-74
2022/10/22 01:11:52;;;;;;;9.35;5.60;;;12.70;99.90;;;;;;5049120;28;20021;-73
2022/10/22 01:14:49;;;;;;;10.30;5.78;;;12.60;99.90;;;;;;5031642;28;20128;-73
2022/10/22 01:17:25;;;;;;;10.63;6.05;;;12.60;99.90;;;;;;5052199;28;20041;-74
2022/10/22 01:20:03;;;;;;;10.75;6.22;;;12.50;99.90;;;;;;5052903;28;20025;-73
2022/10/22 01:22:35;;;;;;;10.80;6.40;;;12.50;99.90;;;;;;5051152;28;20033;-73
2022/10/22 01:25:27;;;;;;;9.90;5.93;;;12.40;99.90;;;;;;5051521;28;20033;-75
2022/10/22 01:28:30;;;;;;;11.93;6.57;;;12.40;99.90;;;;;;5053209;28;20295;-73
2022/10/22 01:30:58;;;;;;;14.80;6.35;;;12.40;99.90;;;;;;5054304;28;20092;-73
2022/10/22 01:33:25;;;;;;;10.73;6.68;;;12.30;99.90;;;;;;5053133;28;20025;-73
2022/10/22 01:35:52;;;;;;;13.85;7.22;;;12.30;99.90;;;;;;5051178;28;20025;-73
2022/10/22 01:38:21;;;;;;;10.95;7.13;;;12.30;99.90;;;;;;5046364;28;20110;-74
2022/10/22 01:40:47;;;;;;;11.45;6.65;;;12.20;99.90;;;;;;5052504;28;20040;-73
2022/10/22 01:43:12;;;;;;;14.63;7.35;;;12.20;99.90;;;;;;5052969;28;20021;-73
2022/10/22 01:45:45;;;;;;;14.88;7.55;;;12.20;99.90;;;;;;5044603;28;20044;-73
2022/10/22 01:48:48;;;;;;;16.25;7.57;;;12.10;99.90;;;;;;5052970;28;20488;-73
2022/10/22 01:51:59;;;;;;;11.55;7.20;;;12.20;99.90;;;;;;5043829;28;20032;-73
2022/10/22 01:54:34;;;;;;;14.45;8.60;;;12.10;99.90;;;;;;5051921;28;20033;-73
2022/10/22 01:57:27;;;;;;;10.02;7.57;;;12.10;99.90;;;;;;5048871;28;20443;-73
2022/10/22 01:59:58;;;;;;;18.48;8.85;;;12.10;99.90;;;;;;5053864;28;20028;-73
2022/10/22 02:02:48;;;;;;;16.23;8.17;;;12.10;99.90;;;;;;5053684;28;20059;-73
2022/10/22 02:05:37;;;;;;;13.25;8.77;;;12.00;99.90;;;;;;5050533;28;20033;-73
2022/10/22 02:08:13;;;;;;;14.32;7.68;;;12.00;99.90;;;;;;5052853;28;20477;-73
2022/10/22 02:10:42;;;;;;;16.00;8.70;;;12.00;99.90;;;;;;5049978;28;20550;-73
2022/10/22 02:13:13;;;;;;;14.35;7.28;;;12.00;99.90;;;;;;5045126;28;20061;-73
2022/10/22 02:15:39;;;;;;;13.60;8.32;;;12.00;99.90;;;;;;5050332;28;20021;-73
2022/10/22 02:18:07;;;;;;;14.77;8.80;;;12.00;99.90;;;;;;5050343;28;20028;-73
2022/10/22 02:20:35;;;;;;;11.23;8.00;;;12.00;99.90;;;;;;5050671;28;20369;-74
2022/10/22 02:23:02;;;;;;;14.32;7.97;;;12.00;99.90;;;;;;5048171;28;20048;-73
2022/10/22 02:25:31;;;;;;;14.65;8.20;;;12.00;99.90;;;;;;5050206;28;20098;-73
2022/10/22 02:28:12;;;;;;;15.90;8.20;;;11.90;99.90;;;;;;5051065;28;20037;-73
2022/10/22 02:30:40;;;;;;;15.80;8.70;;;12.00;99.90;;;;;;5049188;28;20032;-73
2022/10/22 02:33:19;;;;;;;13.98;8.23;;;11.90;99.90;;;;;;5051706;28;20049;-73
2022/10/22 02:35:46;;;;;;;17.42;8.23;;;11.90;99.90;;;;;;5047959;28;20126;-73
2022/10/22 02:38:13;;;;;;;15.32;8.98;;;11.90;99.90;;;;;;5050523;28;20051;-73
2022/10/22 02:40:38;;;;;;;15.90;8.88;;;11.90;99.90;;;;;;5052056;28;20524;-73
2022/10/22 02:43:04;;;;;;;15.98;8.05;;;11.90;99.90;;;;;;5052852;28;20096;-73
2022/10/22 02:45:31;;;;;;;15.77;9.18;;;11.90;99.90;;;;;;5049313;28;20508;-73
2022/10/22 02:47:57;;;;;;;17.90;9.23;;;11.90;99.90;;;;;;5050325;28;20107;-73
2022/10/22 02:50:22;;;;;;;12.88;7.82;;;11.90;99.90;;;;;;5049701;28;20036;-73
2022/10/22 02:52:48;;;;;;;12.48;7.90;;;11.90;99.90;;;;;;5048713;28;20025;-73
2022/10/22 02:55:13;;;;;;;17.15;8.98;;;12.00;99.90;;;;;;5051315;28;20036;-73
2022/10/22 02:57:39;;;;;;;16.15;8.23;;;12.00;99.90;;;;;;5049397;28;20029;-73
2022/10/22 03:00:06;;;;;;;13.32;8.15;;;12.00;99.90;;;;;;5050147;28;20407;-73
2022/10/22 03:02:32;;;;;;;18.42;8.32;;;12.00;99.90;;;;;;5044330;28;20025;-73
2022/10/22 03:04:58;;;;;;;15.73;9.13;;;12.00;99.90;;;;;;5047624;28;20332;-73
2022/10/22 03:07:23;;;;;;;14.25;9.35;;;12.00;99.90;;;;;;5046114;28;20065;-74
2022/10/22 03:09:49;;;;;;;15.57;8.00;;;12.10;99.90;;;;;;5052184;28;20605;-73
2022/10/22 03:12:14;;;;;;;13.85;8.35;;;12.10;99.90;;;;;;5051057;28;20103;-74
2022/10/22 03:14:40;;;;;;;12.73;8.23;;;12.10;99.90;;;;;;5051222;28;20911;-73
2022/10/22 03:17:05;;;;;;;14.07;8.80;;;12.10;99.90;;;;;;5049941;28;20040;-73
2022/10/22 03:19:31;;;;;;;16.60;7.97;;;12.10;99.90;;;;;;5050479;28;20037;-73
2022/10/22 03:22:06;;;;;;;15.57;8.07;;;12.10;99.90;;;;;;5050943;28;20029;-73
2022/10/22 03:24:42;;;;;;;17.08;8.80;;;12.10;99.90;;;;;;5050539;28;20025;-73
2022/10/22 03:27:09;;;;;;;14.63;8.20;;;12.00;99.90;;;;;;5051111;28;20039;-73
2022/10/22 03:29:37;;;;;;;14.15;8.02;;;12.00;99.90;;;;;;5041184;28;20159;-74
2022/10/22 03:32:03;;;;;;;14.65;8.95;;;12.00;99.90;;;;;;5047381;28;20489;-74
2022/10/22 03:34:28;;;;;;;13.15;8.25;;;12.00;99.90;;;;;;5051634;28;20163;-73
2022/10/22 03:36:56;;;;;;;16.52;8.52;;;12.00;99.90;;;;;;5049410;28;20041;-73
2022/10/22 03:39:22;;;;;;;14.98;8.65;;;12.00;99.90;;;;;;5048707;28;20033;-73
2022/10/22 03:41:50;;;;;;;17.33;8.82;;;12.00;99.90;;;;;;5049056;28;20144;-73
2022/10/22 03:44:16;;;;;;;13.23;8.85;;;12.00;99.90;;;;;;5040963;28;20042;-73
2022/10/22 03:46:42;;;;;;;12.00;7.63;;;12.00;99.90;;;;;;5044489;28;20029;-73
2022/10/22 03:49:07;;;;;;;13.18;7.72;;;11.90;99.90;;;;;;5047594;28;20431;-73
2022/10/22 03:51:34;;;;;;;14.85;8.60;;;12.00;99.90;;;;;;5051097;28;20704;-73
2022/10/22 03:54:00;;;;;;;15.07;7.35;;;12.00;99.90;;;;;;5051224;28;20025;-73
2022/10/22 03:56:26;;;;;;;9.23;6.53;;;12.10;99.90;;;;;;5048627;28;20369;-75
2022/10/22 03:58:55;;;;;;;13.40;6.40;;;12.10;99.90;;;;;;5049075;28;20481;-73
2022/10/22 04:01:21;;;;;;;15.00;7.15;;;12.10;99.90;;;;;;5045704;28;20025;-73
2022/10/22 04:03:46;;;;;;;16.52;7.53;;;12.10;99.90;;;;;;5050262;28;20078;-73
2022/10/22 04:06:12;;;;;;;13.50;7.15;;;12.20;99.90;;;;;;5049424;28;20131;-73
2022/10/22 04:08:39;;;;;;;13.90;7.13;;;12.10;99.90;;;;;;5051403;28;20037;-73
2022/10/22 04:11:06;;;;;;;13.85;7.63;;;12.20;99.90;;;;;;5050728;28;20029;-73
2022/10/22 04:13:31;;;;;;;13.73;7.90;;;12.20;99.90;;;;;;5047221;28;20029;-74
2022/10/22 04:16:21;;;;;;;17.98;7.78;;;12.20;99.90;;;;;;5049166;28;20032;-73
2022/10/22 04:18:48;;;;;;;14.40;7.53;;;12.20;99.90;;;;;;5047582;28;20025;-74
2022/10/22 04:21:16;;;;;;;15.73;6.78;;;12.20;99.90;;;;;;5047908;28;20025;-73
2022/10/22 04:23:46;;;;;;;13.80;6.60;;;12.20;99.90;;;;;;5053200;28;20036;-73
2022/10/22 04:26:12;;;;;;;14.27;7.68;;;12.20;99.90;;;;;;5050912;28;20029;-74
2022/10/22 04:28:38;;;;;;;14.95;6.85;;;12.10;99.90;;;;;;5049083;28;20048;-73
2022/10/22 04:31:12;;;;;;;14.40;7.10;;;12.20;99.90;;;;;;5057727;28;20033;-73
2022/10/22 04:33:38;;;;;;;14.55;7.15;;;12.20;99.90;;;;;;5048119;28;20833;-73
2022/10/22 04:36:10;;;;;;;13.27;6.57;;;12.20;99.90;;;;;;5042350;28;20037;-74
2022/10/22 04:38:36;;;;;;;13.90;6.90;;;12.20;99.90;;;;;;5051652;28;20021;-74
2022/10/22 04:41:13;;;;;;;14.10;6.13;;;12.20;99.90;;;;;;5053196;28;20039;-73
2022/10/22 04:43:40;;;;;;;11.77;6.45;;;12.30;99.90;;;;;;5053626;28;20028;-73
2022/10/22 04:46:07;;;;;;;8.60;5.70;;;12.30;99.90;;;;;;5053340;28;20043;-73
2022/10/22 04:48:35;;;;;;;17.23;6.75;;;12.30;99.90;;;;;;5055174;28;20461;-73
2022/10/22 04:51:00;;;;;;;13.40;6.47;;;12.30;99.90;;;;;;5051737;28;20083;-73
2022/10/22 04:53:26;;;;;;;14.07;6.50;;;12.30;99.90;;;;;;5050691;28;20021;-74
2022/10/22 04:55:53;;;;;;;15.65;6.15;;;12.30;99.90;;;;;;5046251;28;20044;-73
2022/10/22 04:58:18;;;;;;;12.65;6.15;;;12.30;99.90;;;;;;5042715;28;20055;-74
2022/10/22 05:00:44;;;;;;;16.48;6.05;;;12.30;99.90;;;;;;5045763;28;20041;-75
2022/10/22 05:03:09;;;;;;;9.82;6.20;;;12.40;99.90;;;;;;5049908;28;20100;-74
2022/10/22 05:05:35;;;;;;;16.58;6.70;;;12.40;99.90;;;;;;5052620;28;20087;-73
2022/10/22 05:08:01;;;;;;;13.18;5.78;;;12.40;99.90;;;;;;5055259;28;20031;-74
2022/10/22 05:10:27;;;;;;;14.30;6.32;;;12.40;99.90;;;;;;5054573;28;20032;-73
2022/10/22 05:12:53;;;;;;;13.88;5.68;;;12.40;99.90;;;;;;5056656;28;20108;-74
2022/10/22 05:15:18;;;;;;;14.93;6.25;;;12.40;99.90;;;;;;5055810;28;20107;-73
2022/10/22 05:17:44;;;;;;;13.85;5.43;;;12.40;99.90;;;;;;5057427;28;20025;-73
2022/10/22 05:20:10;;;;;;;16.05;5.80;;;12.40;99.90;;;;;;5052785;28;20033;-73
2022/10/22 05:22:35;;;;;;;13.82;5.25;;;12.40;99.90;;;;;;5056124;28;20040;-73
2022/10/22 05:25:01;;;;;;;12.15;5.35;;;12.40;99.90;;;;;;5052925;28;21200;-74
2022/10/22 05:27:27;;;;;;;10.25;4.78;;;12.40;99.90;;;;;;5057103;28;20035;-74
2022/10/22 05:29:52;;;;;;;12.98;5.57;;;12.40;99.90;;;;;;5052905;28;20033;-74
2022/10/22 05:32:18;;;;;;;13.63;5.50;;;12.30;99.90;;;;;;5052912;28;20044;-74
2022/10/22 05:34:43;;;;;;;15.63;5.30;;;12.40;99.90;;;;;;5054332;28;20036;-74
2022/10/22 05:37:09;;;;;;;10.65;5.53;;;12.40;99.90;;;;;;5049956;28;20047;-74
2022/10/22 05:39:35;;;;;;;13.23;5.40;;;12.40;99.90;;;;;;5054488;28;20025;-72
2022/10/22 05:42:02;;;;;;;10.18;5.50;;;12.40;99.90;;;;;;5045238;28;20116;-73
2022/10/22 05:44:27;;;;;;;13.75;5.63;;;12.40;99.90;;;;;;5051512;28;20111;-72
2022/10/22 05:46:53;;;;;;;16.80;5.85;;;12.40;99.90;;;;;;5054381;28;20100;-73
2022/10/22 05:49:19;;;;;;;13.75;5.75;;;12.40;99.90;;;;;;5049446;28;20067;-74
2022/10/22 05:51:45;;;;;;;9.15;4.38;;;12.50;99.90;;;;;;5049805;28;20480;-73
2022/10/22 05:54:17;;;;;;;11.35;4.90;;;12.40;99.90;;;;;;5052508;28;20024;-73
2022/10/22 05:56:43;;;;;;;11.25;4.88;;;12.40;99.90;;;;;;5042637;28;20128;-74
2022/10/22 05:59:10;;;;;;;12.68;5.32;;;12.50;99.90;;;;;;5051653;28;20552;-74
2022/10/22 06:01:38;;;;;;;9.50;4.60;;;12.50;99.90;;;;;;5047189;28;20028;-74
2022/10/22 06:04:06;;;;;;;8.13;4.63;;;12.60;99.90;;;;;;5046531;28;20060;-74
2022/10/22 06:06:49;;;;;;;17.70;4.97;;;12.60;99.90;;;;;;5041938;28;20698;-74
2022/10/22 06:09:17;;;;;;;;;;;12.60;99.90;;;;;;5049710;28;20025;-74
2022/10/22 06:11:44;;;;;;;9.85;4.25;;;12.60;99.90;;;;;;5046803;28;19931;-73
2022/10/22 06:14:10;;;;;;;10.23;5.00;;;12.60;99.90;;;;;;5051254;28;20378;-74
2022/10/22 06:16:36;;;;;;;12.02;5.07;;;12.60;99.90;;;;;;5052084;28;20866;-74
2022/10/22 06:19:02;;;;;;;7.32;4.68;;;12.60;99.90;;;;;;5062371;28;20041;-74
2022/10/22 06:21:28;;;;;;;11.15;4.72;;;12.60;99.90;;;;;;5050081;28;20029;-74
2022/10/22 06:23:59;;;;;;;8.02;4.57;;;12.60;99.90;;;;;;5053805;28;20426;-73
2022/10/22 06:26:25;;;;;;;11.98;4.55;;;12.60;99.90;;;;;;5043518;28;20029;-74
2022/10/22 06:28:50;;;;;;;9.60;4.30;;;12.60;99.90;;;;;;5048884;28;20099;-74
2022/10/22 06:31:16;;;;;;;14.45;4.68;;;12.60;99.90;;;;;;5048073;28;20078;-74
2022/10/22 06:33:42;;;;;;;12.38;5.07;;;12.60;99.90;;;;;;5049454;28;20032;-74
2022/10/22 06:36:16;;;;;;;13.98;5.03;;;12.70;99.90;;;;;;5045500;28;20148;-74
2022/10/22 06:38:42;;;;;;;10.93;4.88;;;12.70;99.90;;;;;;5038670;28;20028;-75
2022/10/22 06:41:10;;;;;;;15.65;4.90;;;12.70;99.90;;;;;;5042560;28;20523;-73
2022/10/22 06:43:36;;;;;;;15.70;4.85;;;12.70;99.90;;;;;;5050510;28;20448;-74
2022/10/22 06:46:04;;;;;;;13.25;4.95;;;12.70;99.90;;;;;;5050293;28;20120;-74
2022/10/22 06:48:30;;;;;;;14.27;4.32;;;12.70;99.90;;;;;;5040041;28;20018;-74
2022/10/22 06:51:00;;;;;;;9.88;4.50;;;12.70;99.90;;;;;;5049401;28;20033;-74
2022/10/22 06:53:25;;;;;;;9.55;4.63;;;12.80;99.90;;;;;;5048830;28;20040;-74
2022/10/22 06:55:51;;;;;;;14.52;4.80;;;12.80;99.90;;;;;;5051409;28;20112;-74
2022/10/22 06:58:16;;;;;;;17.38;4.63;;;12.90;99.90;;;;;;5046781;28;20032;-75
2022/10/22 07:00:42;;;;;;;10.55;4.07;;;13.00;99.90;;;;;;5046379;28;20456;-74
2022/10/22 07:03:12;;;;;;;11.80;4.95;;;13.10;99.90;;;;;;5051112;28;20028;-74
2022/10/22 07:05:37;;;;;;;9.77;4.55;;;13.10;99.90;;;;;;5051210;28;20025;-74
2022/10/22 07:08:03;;;;;;;14.88;4.28;;;13.20;99.90;;;;;;5049635;28;20078;-75
2022/10/22 07:10:29;;;;;;;10.40;4.40;;;13.20;99.90;;;;;;5045259;28;20025;-75
2022/10/22 07:12:54;;;;;;;12.57;4.35;;;13.20;99.90;;;;;;5046800;28;20358;-74
2022/10/22 07:15:20;;;;;;;8.50;4.55;;;13.30;99.90;;;;;;5051177;28;20029;-74
2022/10/22 07:17:45;;;;;;;11.45;3.90;;;13.30;99.90;;;;;;5046964;28;20567;-72
2022/10/22 07:20:11;;;;;;;12.52;4.45;;;13.30;99.90;;;;;;5041500;28;20094;-73
2022/10/22 07:22:37;;;;;;;12.93;4.78;;;13.30;99.90;;;;;;5050241;28;20047;-72
2022/10/22 07:25:03;;;;;;;13.38;4.97;;;13.30;99.90;;;;;;5049258;28;20033;-73
2022/10/22 07:27:29;;;;;;;12.43;4.80;;;13.30;99.90;;;;;;5044231;28;20052;-74
2022/10/22 07:29:54;;;;;;;10.80;4.65;;;13.40;99.90;;;;;;5047732;28;20021;-74
2022/10/22 07:32:20;;;;;;;8.93;4.35;;;13.40;99.90;;;;;;5048283;28;20116;-73
2022/10/22 07:34:45;;;;;;;13.18;4.68;;;13.40;99.90;;;;;;5048172;28;20032;-74
2022/10/22 07:37:11;;;;;;;13.80;6.28;;;13.50;99.90;;;;;;5049177;28;20036;-74
2022/10/22 07:39:36;;;;;;;10.05;4.43;;;13.60;99.90;;;;;;5040758;28;20507;-74
2022/10/22 07:42:02;;;;;;;11.15;4.85;;;13.70;99.90;;;;;;5049538;28;20021;-73
2022/10/22 07:44:28;;;;;;;16.80;3.95;;;13.70;99.90;;;;;;5048152;28;20033;-74
2022/10/22 07:46:53;;;;;;;11.13;4.65;;;13.70;99.90;;;;;;5050072;28;20033;-73
2022/10/22 07:49:19;;;;;;;15.43;4.55;;;13.80;99.90;;;;;;5045634;28;20120;-74
2022/10/22 07:51:45;;;;;;;13.00;5.00;;;13.90;99.90;;;;;;5045872;28;20104;-73
2022/10/22 07:54:10;;;;;;;10.98;4.30;;;14.00;99.90;;;;;;5048153;28;20029;-74
2022/10/22 07:56:36;;;;;;;11.93;4.13;;;14.20;99.90;;;;;;5045644;28;20048;-73
2022/10/22 07:59:01;;;;;;;13.55;4.50;;;14.30;99.90;;;;;;5040288;28;20033;-74
2022/10/22 08:01:27;;;;;;;9.82;3.78;;;14.40;99.90;;;;;;5045375;28;20452;-74
2022/10/22 08:03:53;;;;;;;14.10;3.85;;;14.60;99.90;;;;;;5045682;28;20116;-73
2022/10/22 08:06:18;;;;;;;9.85;3.45;;;14.70;99.90;;;;;;5050615;28;20105;-72
2022/10/22 08:08:47;;;;;;;9.93;3.67;;;14.90;99.90;;;;;;5047074;28;20025;-73
2022/10/22 08:11:13;;;;;;;9.80;3.25;;;14.90;99.90;;;;;;5046318;28;20067;-74
2022/10/22 08:13:38;;;;;;;9.27;2.90;;;15.00;99.90;;;;;;5040944;28;20116;-73
2022/10/22 08:16:04;;;;;;;10.60;2.50;;;15.00;99.90;;;;;;5038436;28;20092;-74
2022/10/22 08:18:32;;;;;;;8.93;2.45;;;15.10;99.90;;;;;;5035939;28;20028;-74
2022/10/22 08:20:58;;;;;;;9.93;2.33;;;15.00;99.90;;;;;;5047334;28;20099;-74
2022/10/22 08:23:24;;;;;;;12.40;1.88;;;15.10;99.90;;;;;;5038067;28;20544;-73
2022/10/22 08:25:49;;;;;;;11.60;2.25;;;15.10;99.90;;;;;;5046169;28;20114;-74
2022/10/22 08:28:15;;;;;;;12.82;2.33;;;15.20;99.90;;;;;;5046416;28;20416;-73
2022/10/22 08:30:41;;;;;;;11.18;2.47;;;15.20;99.90;;;;;;5048347;28;20049;-74
2022/10/22 08:33:07;;;;;;;13.45;1.80;;;15.30;99.90;;;;;;5044369;28;20036;-74
2022/10/22 08:35:32;;;;;;;10.65;1.48;;;15.30;99.90;;;;;;5048030;28;20029;-73
2022/10/22 08:37:58;;;;;;;10.43;1.90;;;15.30;99.90;;;;;;5049506;28;20055;-73
2022/10/22 08:40:33;;;;;;;8.50;1.15;;;15.40;99.90;;;;;;5044762;28;20032;-73
2022/10/22 08:43:14;;;;;;;13.57;1.42;;;15.40;99.90;;;;;;5042032;28;20037;-73
2022/10/22 08:45:58;;;;;;;7.80;1.20;;;15.60;99.90;;;;;;5041693;28;20028;-73
2022/10/22 08:48:26;;;;;;;8.68;1.40;;;15.60;99.90;;;;;;5048124;28;20370;-74
2022/10/22 08:50:56;;;;;;;9.30;1.20;;;15.70;99.90;;;;;;5045575;28;20028;-73
2022/10/22 08:53:29;;;;;;;7.82;0.90;;;15.80;99.90;;;;;;5042661;28;20033;-73
2022/10/22 08:55:56;;;;;;;8.43;1.35;;;15.80;99.90;;;;;;5043631;28;20033;-73
2022/10/22 08:58:58;;;;;;;4.10;1.00;;;15.90;99.90;;;;;;5043648;28;20473;-73
2022/10/22 09:01:34;;;;;;;11.10;1.20;;;15.90;99.90;;;;;;5048124;28;20040;-73
2022/10/22 09:04:12;;;;;;;9.43;1.13;;;15.90;99.90;;;;;;5046609;28;20029;-73
2022/10/22 09:06:40;;;;;;;7.63;0.85;;;15.90;99.90;;;;;;5047770;28;20397;-73
2022/10/22 09:09:14;;;;;;;8.25;1.20;;;15.90;99.90;;;;;;5048672;28;20028;-74
2022/10/22 09:11:43;;;;;;;4.80;0.70;;;15.90;99.90;;;;;;5044460;28;20078;-74
2022/10/22 09:14:19;;;;;;;8.43;0.77;;;16.00;99.90;;;;;;5047555;28;20436;-73
2022/10/22 09:17:06;;;;;;;8.57;1.10;;;16.00;99.90;;;;;;5042065;28;20040;-74
2022/10/22 09:19:38;;;;;;;8.57;0.77;;;16.00;99.90;;;;;;5041946;28;20527;-73
2022/10/22 09:22:36;;;;;;;9.40;1.10;;;16.00;99.90;;;;;;5048866;28;20424;-73
2022/10/22 09:25:17;;;;;;;8.02;0.80;;;16.00;99.90;;;;;;5051073;28;20132;-73
2022/10/22 09:27:43;;;;;;;7.40;0.90;;;16.10;99.90;;;;;;5047049;28;20063;-73
2022/10/22 09:30:19;;;;;;;8.75;0.85;;;16.10;99.90;;;;;;5051659;28;20083;-73
2022/10/22 09:32:49;;;;;;;4.55;0.70;;;16.10;99.90;;;;;;5051420;28;20029;-73
2022/10/22 09:35:22;;;;;;;7.13;0.95;;;16.10;99.90;;;;;;5049436;28;21559;-73
2022/10/22 09:37:49;;;;;;;;;;;16.20;99.90;;;;;;5048471;28;20033;-73
2022/10/22 09:40:15;;;;;;;4.40;0.70;;;16.20;99.90;;;;;;5048341;28;20673;-73
2022/10/22 09:42:42;;;;;;;4.60;0.60;;;16.20;99.90;;;;;;5049398;28;20040;-73
2022/10/22 09:45:18;;;;;;;8.35;0.93;;;16.10;99.90;;;;;;5049623;28;20184;-73
2022/10/22 09:47:43;;;;;;;9.98;1.10;;;16.10;99.90;;;;;;5047079;28;20117;-73
2022/10/22 09:50:26;;;;;;;9.75;0.73;;;16.00;99.90;;;;;;5045999;28;20560;-74
2022/10/22 09:53:04;;;;;;;8.05;1.10;;;16.10;99.90;;;;;;5052136;28;20108;-73
2022/10/22 09:55:31;;;;;;;7.30;1.08;;;16.10;99.90;;;;;;5052265;28;20094;-74
2022/10/22 09:57:59;;;;;;;9.30;1.30;;;16.20;99.90;;;;;;5046851;28;20432;-74
2022/10/22 10:00:28;;;;;;;8.25;1.73;;;16.20;99.90;;;;;;5048673;28;20033;-74
2022/10/22 10:02:56;;;;;;;7.63;1.15;;;16.30;99.90;;;;;;5050033;28;20025;-74
2022/10/22 10:05:28;;;;;;;9.98;1.23;;;16.40;99.90;;;;;;5049946;28;20083;-74
2022/10/22 10:07:55;;;;;;;;;;;16.40;99.90;;;;;;5047977;28;20029;-73
2022/10/22 10:10:49;;;;;;;9.88;1.50;;;16.40;99.90;;;;;;5050926;28;19915;-73
2022/10/22 10:13:42;;;;;;;7.60;1.10;;;16.50;99.90;;;;;;5026406;28;20085;-74
2022/10/22 10:16:48;;;;;;;10.85;1.27;;;16.60;99.90;;;;;;5049516;28;20041;-73
2022/10/22 10:19:22;;;;;;;10.77;1.20;;;16.70;99.90;;;;;;5046650;28;20032;-73
2022/10/22 10:22:03;;;;;;;10.63;1.65;;;16.80;99.90;;;;;;5047320;28;20021;-73
2022/10/22 10:25:06;;;;;;;11.70;1.75;;;16.80;99.90;;;;;;5049411;28;20504;-74
2022/10/22 10:27:39;;;;;;;9.00;1.73;;;16.90;99.90;;;;;;5048817;28;20095;-74
2022/10/22 10:30:14;;;;;;;8.43;1.60;;;16.90;99.90;;;;;;5044946;28;20033;-73
2022/10/22 10:32:58;;;;;;;8.23;1.45;;;17.00;99.90;;;;;;5046405;28;20550;-74
2022/10/22 10:35:53;;;;;;;8.32;1.48;;;17.00;99.90;;;;;;5039365;28;20103;-73
2022/10/22 10:38:31;;;;;;;5.47;0.90;;;17.10;99.90;;;;;;5041499;28;20048;-74
2022/10/22 10:41:25;;;;;;;8.45;1.40;;;17.20;99.90;;;;;;5045557;28;20028;-73
2022/10/22 10:44:11;;;;;;;10.85;1.67;;;17.30;99.90;;;;;;5051189;28;20021;-74
2022/10/22 10:46:54;;;;;;;5.28;0.88;;;17.40;99.90;;;;;;5036073;28;20044;-74
2022/10/22 10:49:24;;;;;;;9.88;1.30;;;17.50;99.90;;;;;;5046934;28;20170;-74
2022/10/22 10:52:15;;;;;;;7.85;1.15;;;17.70;99.90;;;;;;5050225;28;20126;-74
2022/10/22 10:55:14;;;;;;;7.13;0.98;;;17.70;99.90;;;;;;5044612;28;20025;-73
2022/10/22 10:57:58;;;;;;;10.15;0.82;;;17.70;99.90;;;;;;5057159;28;20563;-73
2022/10/22 11:00:24;;;;;;;13.68;1.80;;;17.80;99.90;;;;;;5044509;28;20025;-73
2022/10/22 11:02:56;;;;;;;9.20;1.42;;;17.80;99.90;;;;;;5042734;28;20083;-73
2022/10/22 11:05:31;;;;;;;8.52;0.93;;;17.90;99.90;;;;;;5051087;28;20109;-73
2022/10/22 11:08:10;;;;;;;10.98;1.25;;;17.80;99.90;;;;;;5048040;28;20079;-73
2022/10/22 11:10:59;;;;;;;7.03;0.95;;;17.80;99.90;;;;;;5049893;28;20060;-73
2022/10/22 11:13:43;;;;;;;6.55;0.85;;;17.80;99.90;;;;;;5050713;28;20025;-73
2022/10/22 11:16:22;;;;;;;9.52;1.17;;;17.80;99.90;;;;;;5051443;28;20037;-73
2022/10/22 11:19:03;;;;;;;8.65;1.00;;;17.80;99.90;;;;;;5048109;28;20028;-73
2022/10/22 11:21:35;;;;;;;7.60;1.05;;;17.90;99.90;;;;;;5048785;28;20125;-73
2022/10/22 11:24:34;;;;;;;11.60;1.33;;;18.00;99.90;;;;;;5049230;28;20032;-73
2022/10/22 11:27:10;;;;;;;6.43;0.70;;;18.10;99.90;;;;;;5036117;28;20033;-73
2022/10/22 11:29:51;;;;;;;11.07;1.20;;;18.20;99.90;;;;;;5045030;28;20069;-73
2022/10/22 11:32:20;;;;;;;11.45;1.02;;;18.50;99.90;;;;;;5050453;28;20031;-73
2022/10/22 11:34:47;;;;;;;10.05;1.20;;;18.60;99.90;;;;;;5048889;28;20029;-73
2022/10/22 11:37:14;;;;;;;7.32;1.00;;;18.50;99.90;;;;;;5047785;28;20500;-73
2022/10/22 11:39:42;;;;;;;5.97;0.85;;;18.60;99.90;;;;;;5046781;28;20079;-74
2022/10/22 11:42:21;;;;;;;6.32;1.13;;;18.50;99.90;;;;;;5050563;28;20521;-73
2022/10/22 11:45:07;;;;;;;10.30;1.05;;;18.50;99.90;;;;;;5045431;28;20033;-73
2022/10/22 11:47:50;;;;;;;7.30;1.17;;;18.40;99.90;;;;;;5049566;28;20071;-73
2022/10/22 11:50:18;;;;;;;7.43;0.90;;;18.20;99.90;;;;;;5043797;28;20074;-73
2022/10/22 11:52:54;;;;;;;7.45;1.95;;;18.10;99.90;;;;;;5047536;28;20380;-73
2022/10/22 11:55:50;;;;;;;9.00;1.10;;;18.10;99.90;;;;;;5048407;28;20068;-74
2022/10/22 11:58:46;;;;;;;7.45;1.17;;;17.90;99.90;;;;;;5048026;28;20116;-74
2022/10/22 12:01:11;;;;;;;11.68;0.93;;;17.80;99.90;;;;;;5048069;28;20082;-73
2022/10/22 12:03:44;;;;;;;6.00;0.80;;;17.70;99.90;;;;;;5046884;28;20552;-74
2022/10/22 12:06:30;;;;;;;8.43;0.80;;;17.70;99.90;;;;;;5050460;28;20048;-74
2022/10/22 12:09:03;;;;;;;7.35;0.75;;;17.70;99.90;;;;;;5049435;28;20032;-74
2022/10/22 12:11:46;;;;;;;5.38;0.80;;;17.70;99.90;;;;;;5049386;28;20036;-74
2022/10/22 12:14:39;;;;;;;8.13;1.13;;;17.70;99.90;;;;;;5047065;28;20078;-74
2022/10/22 12:17:12;;;;;;;5.47;1.05;;;17.70;99.90;;;;;;5048901;28;20059;-73
2022/10/22 12:19:44;;;;;;;9.73;1.58;;;17.80;99.90;;;;;;5040510;28;20040;-73
2022/10/22 12:22:15;;;;;;;7.55;1.20;;;17.80;99.90;;;;;;5048541;28;20098;-74
2022/10/22 12:24:44;;;;;;;11.55;2.05;;;17.90;99.90;;;;;;5047753;28;20044;-74
2022/10/22 12:27:17;;;;;;;8.90;1.20;;;17.90;99.90;;;;;;5051258;28;20362;-74
2022/10/22 12:29:42;;;;;;;12.90;1.88;;;18.10;99.90;;;;;;5052858;28;20638;-74
2022/10/22 12:32:12;;;;;;;3.92;1.00;;;18.10;99.90;;;;;;5050162;28;20119;-73
2022/10/22 12:34:48;;;;;;;6.20;1.00;;;18.20;99.90;;;;;;5048624;28;20060;-74
2022/10/22 12:37:15;;;;;;;7.28;0.93;;;18.30;99.90;;;;;;5042864;28;20045;-75
2022/10/22 12:39:41;;;;;;;8.73;0.95;;;18.30;99.90;;;;;;5042446;28;20049;-74
2022/10/22 12:42:11;;;;;;;8.90;1.15;;;18.30;99.90;;;;;;5046754;28;20056;-73
2022/10/22 12:44:37;;;;;;;7.53;1.65;;;18.30;99.90;;;;;;5048778;28;20017;-74
2022/10/22 12:47:04;;;;;;;9.38;1.25;;;18.40;99.90;;;;;;5051168;28;20025;-74
2022/10/22 12:49:39;;;;;;;6.95;1.10;;;18.40;99.90;;;;;;5048125;28;20048;-74
2022/10/22 12:52:11;;;;;;;8.25;1.55;;;18.50;99.90;;;;;;5047976;28;20033;-74
2022/10/22 12:54:38;;;;;;;11.73;1.23;;;18.50;99.90;;;;;;5048510;28;20112;-74
2022/10/22 12:57:04;;;;;;;9.77;1.20;;;18.50;99.90;;;;;;5049681;28;20033;-74
2022/10/22 12:59:36;;;;;;;7.85;2.08;;;18.50;99.90;;;;;;5050117;28;20024;-74
2022/10/22 13:02:14;;;;;;;8.60;1.33;;;18.50;99.90;;;;;;5053389;28;20128;-74